Time;durP1;ratioP1;P1;durP2;ratioP2;P2;SDS_P1;SDS_P2;PMS_P1;PMS_P2;Temp;Humidity;BMP_temperature;BMP_pressure;BME280_temperature;BME280_humidity;BME280_pressure;Samples;Min_cycle;Max_cycle;Signal;HPM_P1;HPM_P2
2023/08/20 00:00:30;;;;;;;11.23;10.20;;;26.00;76.30;;;;;;5062125;28;20051;-76
2023/08/20 00:03:04;;;;;;;11.48;10.48;;;26.00;76.40;;;;;;5064086;28;20066;-76
2023/08/20 00:05:31;;;;;;;13.68;11.07;;;26.00;76.20;;;;;;5059460;28;20086;-76
2023/08/20 00:07:57;;;;;;;11.48;10.30;;;26.00;76.40;;;;;;5062139;28;20528;-76
2023/08/20 00:10:23;;;;;;;11.10;9.98;;;26.00;76.60;;;;;;5062708;28;20045;-76
2023/08/20 00:12:48;;;;;;;11.68;10.13;;;26.00;76.60;;;;;;5064771;28;20064;-76
2023/08/20 00:15:14;;;;;;;11.98;10.60;;;26.00;76.50;;;;;;5061027;28;20559;-75
2023/08/20 00:17:41;;;;;;;13.07;10.25;;;26.00;76.60;;;;;;5062588;28;20032;-76
2023/08/20 00:20:12;;;;;;;11.55;10.45;;;26.00;76.70;;;;;;5062513;28;20491;-75
2023/08/20 00:22:43;;;;;;;11.27;10.27;;;26.00;76.70;;;;;;5061009;28;20032;-75
2023/08/20 00:25:10;;;;;;;11.57;10.18;;;26.00;76.60;;;;;;5061934;28;20029;-77
2023/08/20 00:27:35;;;;;;;12.65;10.43;;;26.00;76.70;;;;;;5060652;28;20111;-76
2023/08/20 00:30:02;;;;;;;12.07;10.82;;;26.00;76.50;;;;;;5062070;28;20135;-75
2023/08/20 00:32:28;;;;;;;11.82;10.60;;;26.00;76.40;;;;;;5062530;28;20043;-76
2023/08/20 00:34:54;;;;;;;12.15;10.75;;;26.00;76.40;;;;;;5059399;28;20036;-76
2023/08/20 00:37:21;;;;;;;11.52;10.40;;;26.00;76.50;;;;;;5065325;28;20106;-76
2023/08/20 00:39:46;;;;;;;11.88;10.68;;;26.00;76.60;;;;;;5061247;28;20036;-76
2023/08/20 00:42:16;;;;;;;13.45;11.30;;;26.00;76.40;;;;;;5061551;28;20029;-76
2023/08/20 00:44:46;;;;;;;14.23;12.02;;;26.00;76.50;;;;;;5062490;28;20056;-75
2023/08/20 00:47:13;;;;;;;13.27;11.98;;;26.00;76.40;;;;;;5063533;28;20116;-75
2023/08/20 00:49:40;;;;;;;13.32;11.98;;;26.00;76.60;;;;;;5059355;28;20078;-77
2023/08/20 00:52:09;;;;;;;12.15;10.98;;;25.90;76.60;;;;;;5061277;28;20068;-76
2023/08/20 00:54:36;;;;;;;12.77;11.45;;;25.90;77.10;;;;;;5060931;28;20041;-76
2023/08/20 00:57:02;;;;;;;14.65;12.05;;;25.80;76.90;;;;;;5063733;28;20082;-76
2023/08/20 00:59:31;;;;;;;15.65;12.23;;;25.80;76.70;;;;;;5064918;28;20131;-76
2023/08/20 01:01:58;;;;;;;13.90;12.05;;;25.80;77.00;;;;;;5059488;28;20048;-76
2023/08/20 01:04:24;;;;;;;12.63;11.10;;;25.70;77.30;;;;;;5064957;28;20033;-76
2023/08/20 01:07:08;;;;;;;12.85;11.38;;;25.70;77.40;;;;;;5061600;28;20040;-76
2023/08/20 01:10:01;;;;;;;11.98;10.77;;;25.70;77.20;;;;;;5058732;28;20037;-76
2023/08/20 01:12:28;;;;;;;12.85;11.43;;;25.70;77.70;;;;;;5063267;28;20040;-75
2023/08/20 01:14:54;;;;;;;13.32;11.95;;;25.70;77.90;;;;;;5061926;28;20882;-76
2023/08/20 01:17:20;;;;;;;13.25;11.82;;;25.70;77.80;;;;;;5061247;28;20032;-76
2023/08/20 01:19:47;;;;;;;12.50;11.20;;;25.70;77.80;;;;;;5061806;28;20029;-75
2023/08/20 01:22:36;;;;;;;13.25;11.68;;;25.70;78.00;;;;;;5058192;28;20503;-76
2023/08/20 01:25:30;;;;;;;12.05;10.85;;;25.70;77.80;;;;;;5002091;28;20089;-76
2023/08/20 01:28:15;;;;;;;11.80;10.60;;;25.70;77.80;;;;;;5000960;28;20607;-76
2023/08/20 01:30:42;;;;;;;;;;;25.70;78.00;;;;;;5003324;28;20029;-76
2023/08/20 01:33:09;;;;;;;11.77;10.63;;;25.70;78.00;;;;;;5003299;28;19916;-76
2023/08/20 01:35:35;;;;;;;12.88;10.77;;;25.70;78.00;;;;;;5000680;28;20034;-75
2023/08/20 01:38:11;;;;;;;12.10;10.85;;;25.70;78.00;;;;;;4989295;28;20591;-76
2023/08/20 01:40:37;;;;;;;13.52;11.10;;;25.70;78.00;;;;;;5000958;28;20169;-76
2023/08/20 01:43:03;;;;;;;12.18;10.98;;;25.80;77.90;;;;;;5001569;28;20057;-76
2023/08/20 01:45:29;;;;;;;11.85;10.65;;;25.80;77.80;;;;;;5002352;28;20568;-76
2023/08/20 01:47:55;;;;;;;11.07;9.98;;;25.80;77.80;;;;;;5001648;28;20033;-76
2023/08/20 01:50:21;;;;;;;12.45;11.18;;;25.80;77.80;;;;;;5000083;28;20041;-76
2023/08/20 01:52:47;;;;;;;12.23;10.90;;;25.80;77.80;;;;;;4999761;28;20129;-76
2023/08/20 01:55:14;;;;;;;12.50;11.20;;;25.90;77.80;;;;;;4995343;28;20073;-77
2023/08/20 01:57:40;;;;;;;12.80;11.50;;;25.90;77.80;;;;;;5002337;28;20101;-75
2023/08/20 02:00:06;;;;;;;12.77;11.40;;;25.80;77.80;;;;;;4986766;28;20026;-75
2023/08/20 02:02:39;;;;;;;13.20;11.70;;;25.80;77.90;;;;;;5045593;28;20071;-75
2023/08/20 02:05:06;;;;;;;14.98;11.80;;;25.80;78.00;;;;;;5059449;28;20565;-75
2023/08/20 02:07:32;;;;;;;12.82;11.63;;;25.70;77.70;;;;;;5061600;28;20510;-76
2023/08/20 02:09:59;;;;;;;13.38;11.73;;;25.70;77.90;;;;;;5059653;28;20036;-76
2023/08/20 02:12:27;;;;;;;12.98;11.60;;;25.70;78.10;;;;;;5060621;28;20029;-76
2023/08/20 02:14:53;;;;;;;13.10;11.80;;;25.70;78.30;;;;;;5058879;28;20419;-76
2023/08/20 02:17:23;;;;;;;14.32;12.38;;;25.70;78.20;;;;;;5046255;28;20037;-76
2023/08/20 02:19:49;;;;;;;14.05;12.50;;;25.70;78.00;;;;;;5059734;28;20476;-76
2023/08/20 02:22:17;;;;;;;14.55;12.93;;;25.70;77.80;;;;;;5059525;28;20482;-76
2023/08/20 02:24:43;;;;;;;13.95;11.20;;;25.60;78.10;;;;;;5060484;28;20045;-78
2023/08/20 02:27:09;;;;;;;13.13;11.85;;;25.60;78.40;;;;;;5057762;28;20404;-77
2023/08/20 02:29:34;;;;;;;12.63;11.38;;;25.70;78.40;;;;;;5058251;28;20040;-76
2023/08/20 02:32:00;;;;;;;15.80;11.70;;;25.70;78.40;;;;;;5060194;28;20123;-77
2023/08/20 02:34:26;;;;;;;12.52;11.23;;;25.70;78.30;;;;;;5059106;28;20061;-76
2023/08/20 02:36:52;;;;;;;13.57;12.18;;;25.80;78.30;;;;;;5058687;28;20063;-76
2023/08/20 02:39:20;;;;;;;15.20;12.20;;;25.70;78.00;;;;;;5064124;28;20068;-76
2023/08/20 02:41:45;;;;;;;13.32;11.93;;;25.80;78.10;;;;;;5060409;28;20673;-76
2023/08/20 02:44:12;;;;;;;13.73;11.98;;;25.70;78.10;;;;;;5057650;28;20120;-76
2023/08/20 02:46:38;;;;;;;16.50;12.20;;;25.80;78.00;;;;;;5060266;28;20044;-76
2023/08/20 02:49:04;;;;;;;14.23;12.63;;;25.80;78.00;;;;;;5060379;28;20033;-77
2023/08/20 02:51:30;;;;;;;17.20;12.48;;;25.80;77.90;;;;;;5059216;28;20036;-76
2023/08/20 02:53:56;;;;;;;14.00;12.65;;;25.80;77.90;;;;;;5061191;28;20020;-77
2023/08/20 02:56:22;;;;;;;13.15;11.73;;;25.80;77.90;;;;;;5059875;28;20029;-76
2023/08/20 02:58:47;;;;;;;15.40;12.70;;;25.70;78.20;;;;;;5059511;28;20047;-77
2023/08/20 03:01:25;;;;;;;14.30;12.10;;;25.70;78.30;;;;;;5056927;28;20052;-76
2023/08/20 03:03:53;;;;;;;14.07;12.25;;;25.70;78.40;;;;;;5061072;28;20106;-76
2023/08/20 03:06:19;;;;;;;14.25;12.85;;;25.70;78.50;;;;;;5062273;28;20534;-76
2023/08/20 03:08:46;;;;;;;13.45;12.13;;;25.70;78.60;;;;;;5058294;28;20029;-76
2023/08/20 03:11:12;;;;;;;13.68;12.38;;;25.70;78.70;;;;;;5059326;28;20036;-76
2023/08/20 03:13:38;;;;;;;13.75;12.35;;;25.70;78.70;;;;;;5059076;28;20040;-76
2023/08/20 03:16:04;;;;;;;13.63;12.23;;;25.70;78.70;;;;;;5061852;28;20029;-76
2023/08/20 03:18:30;;;;;;;17.35;13.07;;;25.70;78.90;;;;;;5060309;28;20534;-76
2023/08/20 03:20:56;;;;;;;15.15;13.52;;;25.70;78.80;;;;;;5058650;28;20025;-77
2023/08/20 03:23:23;;;;;;;16.63;14.05;;;25.70;79.10;;;;;;5057130;28;20037;-76
2023/08/20 03:25:49;;;;;;;16.48;13.50;;;25.60;79.30;;;;;;5057956;28;20038;-77
2023/08/20 03:28:17;;;;;;;18.05;12.93;;;25.60;79.30;;;;;;5058655;28;20031;-77
2023/08/20 03:30:43;;;;;;;14.38;12.73;;;25.60;79.30;;;;;;5057076;28;20198;-75
2023/08/20 03:33:12;;;;;;;16.35;14.07;;;25.60;79.20;;;;;;5057692;28;20035;-77
2023/08/20 03:35:39;;;;;;;16.10;14.43;;;25.60;79.30;;;;;;5059041;28;20896;-77
2023/08/20 03:38:05;;;;;;;16.15;14.07;;;25.50;79.20;;;;;;5062280;28;20044;-76
2023/08/20 03:40:31;;;;;;;16.92;13.38;;;25.60;79.20;;;;;;5057822;28;20827;-77
2023/08/20 03:42:57;;;;;;;15.38;13.77;;;25.50;79.10;;;;;;5059352;28;20041;-77
2023/08/20 03:45:24;;;;;;;16.10;13.98;;;25.50;78.70;;;;;;5057177;28;20032;-77
2023/08/20 03:47:49;;;;;;;15.43;13.05;;;25.40;79.40;;;;;;5057363;28;20033;-77
2023/08/20 03:50:17;;;;;;;13.32;11.93;;;25.50;78.60;;;;;;5060667;28;20460;-77
2023/08/20 03:52:44;;;;;;;13.70;11.90;;;25.50;78.90;;;;;;5059405;28;20527;-76
2023/08/20 03:55:10;;;;;;;13.05;11.75;;;25.60;79.10;;;;;;5058675;28;20040;-76
2023/08/20 03:57:36;;;;;;;15.75;12.25;;;25.60;79.00;;;;;;5061565;28;20037;-76
2023/08/20 04:00:08;;;;;;;13.93;11.80;;;25.60;79.00;;;;;;5058154;28;20165;-76
2023/08/20 04:02:41;;;;;;;13.43;12.05;;;25.60;78.90;;;;;;5057198;28;20044;-76
2023/08/20 04:05:07;;;;;;;12.48;11.20;;;25.70;78.80;;;;;;5058731;28;20063;-75
2023/08/20 04:07:33;;;;;;;26.45;12.35;;;25.70;78.80;;;;;;5058948;28;20037;-76
2023/08/20 04:09:59;;;;;;;14.70;12.00;;;25.70;78.70;;;;;;5057287;28;20055;-76
2023/08/20 04:12:25;;;;;;;16.42;12.82;;;25.60;78.90;;;;;;5058218;28;20115;-76
2023/08/20 04:14:51;;;;;;;14.80;13.20;;;25.60;79.00;;;;;;5060233;28;20063;-75
2023/08/20 04:17:17;;;;;;;16.25;13.55;;;25.50;78.90;;;;;;5058618;28;20052;-75
2023/08/20 04:19:43;;;;;;;14.05;12.65;;;25.40;79.20;;;;;;5056700;28;20051;-76
2023/08/20 04:22:09;;;;;;;13.93;12.48;;;25.40;79.60;;;;;;5057425;28;20037;-76
2023/08/20 04:24:35;;;;;;;16.25;12.52;;;25.40;80.00;;;;;;5057594;28;20278;-76
2023/08/20 04:27:01;;;;;;;15.93;12.88;;;25.40;79.40;;;;;;5056636;28;20500;-76
2023/08/20 04:29:29;;;;;;;13.65;11.60;;;25.30;79.40;;;;;;5058593;28;20100;-74
2023/08/20 04:31:55;;;;;;;12.35;11.05;;;25.40;79.80;;;;;;5060103;28;20033;-76
2023/08/20 04:34:21;;;;;;;14.77;11.82;;;25.40;79.50;;;;;;5056008;28;20401;-76
2023/08/20 04:36:51;;;;;;;12.75;11.40;;;25.50;79.60;;;;;;5058077;28;20040;-76
2023/08/20 04:39:18;;;;;;;18.60;12.93;;;25.50;80.10;;;;;;5056254;28;20044;-76
2023/08/20 04:41:49;;;;;;;15.00;12.02;;;25.50;79.40;;;;;;5056531;28;20041;-76
2023/08/20 04:44:17;;;;;;;15.98;12.98;;;25.50;79.40;;;;;;5060801;28;20115;-76
2023/08/20 04:46:44;;;;;;;13.70;12.00;;;25.60;79.50;;;;;;5063243;28;20033;-76
2023/08/20 04:49:11;;;;;;;16.42;11.93;;;25.50;79.50;;;;;;5064653;28;20033;-76
2023/08/20 04:51:38;;;;;;;16.70;13.43;;;25.50;79.70;;;;;;5065857;28;20548;-76
2023/08/20 04:54:04;;;;;;;15.00;13.43;;;25.50;80.00;;;;;;5063127;28;20036;-76
2023/08/20 04:56:30;;;;;;;14.93;13.25;;;25.50;80.30;;;;;;5059789;28;20496;-76
2023/08/20 04:58:56;;;;;;;14.60;12.43;;;25.50;80.60;;;;;;5060765;28;20508;-76
2023/08/20 05:01:55;;;;;;;13.85;12.38;;;25.50;80.70;;;;;;5037251;28;20166;-76
2023/08/20 05:04:36;;;;;;;13.32;11.93;;;25.40;80.40;;;;;;5059174;28;20033;-76
2023/08/20 05:07:03;;;;;;;14.27;12.77;;;25.50;80.40;;;;;;5060729;28;20082;-76
2023/08/20 05:09:29;;;;;;;14.80;13.23;;;25.50;81.00;;;;;;5060564;28;20065;-77
2023/08/20 05:11:55;;;;;;;14.57;12.63;;;25.50;81.20;;;;;;5048575;28;20035;-76
2023/08/20 05:14:21;;;;;;;14.48;12.93;;;25.40;81.20;;;;;;5058276;28;20090;-76
2023/08/20 05:16:47;;;;;;;16.73;12.68;;;25.40;81.40;;;;;;5062824;28;20036;-76
2023/08/20 05:19:13;;;;;;;14.30;12.80;;;25.40;81.90;;;;;;5062904;28;20047;-76
2023/08/20 05:21:39;;;;;;;14.45;12.38;;;25.40;82.00;;;;;;5064240;28;21189;-76
2023/08/20 05:24:05;;;;;;;13.98;12.32;;;25.50;81.70;;;;;;5060570;28;20122;-76
2023/08/20 05:26:31;;;;;;;15.50;13.38;;;25.60;81.90;;;;;;5059619;28;20157;-75
2023/08/20 05:28:57;;;;;;;14.38;12.88;;;25.50;82.30;;;;;;5063759;28;20044;-76
2023/08/20 05:31:24;;;;;;;16.67;12.60;;;25.60;82.30;;;;;;5059472;28;20040;-77
2023/08/20 05:33:50;;;;;;;15.57;13.35;;;25.60;82.40;;;;;;5059047;28;20037;-77
2023/08/20 05:36:18;;;;;;;18.02;13.20;;;25.60;82.60;;;;;;5059123;28;20037;-76
2023/08/20 05:38:46;;;;;;;15.05;12.45;;;25.60;82.80;;;;;;5078125;28;20036;-77
2023/08/20 05:41:12;;;;;;;17.00;12.15;;;25.70;82.80;;;;;;5043782;28;20075;-77
2023/08/20 05:43:38;;;;;;;13.82;11.80;;;25.70;83.00;;;;;;5063659;28;20176;-76
2023/08/20 05:46:05;;;;;;;14.02;12.57;;;25.70;83.20;;;;;;5060598;28;20040;-77
2023/08/20 05:48:31;;;;;;;12.63;11.32;;;25.80;83.40;;;;;;5043921;28;20036;-77
2023/08/20 05:50:57;;;;;;;14.68;11.68;;;25.90;83.30;;;;;;5062294;28;20056;-77
2023/08/20 05:53:23;;;;;;;12.75;11.43;;;25.90;83.20;;;;;;5058841;28;20064;-76
2023/08/20 05:55:50;;;;;;;11.85;10.65;;;25.90;82.90;;;;;;5058572;28;20044;-77
2023/08/20 05:58:16;;;;;;;11.43;10.23;;;26.00;83.00;;;;;;5058872;28;20036;-77
2023/08/20 06:00:42;;;;;;;12.07;10.77;;;26.00;82.80;;;;;;5059576;28;20508;-77
2023/08/20 06:03:08;;;;;;;11.55;10.32;;;26.00;83.00;;;;;;5064038;28;20036;-78
2023/08/20 06:05:36;;;;;;;11.18;10.18;;;26.00;82.80;;;;;;5058941;28;20531;-77
2023/08/20 06:08:02;;;;;;;12.18;10.90;;;26.10;83.10;;;;;;5059220;28;20072;-77
2023/08/20 06:10:28;;;;;;;12.13;10.23;;;26.10;83.20;;;;;;5059020;28;20504;-76
2023/08/20 06:12:54;;;;;;;10.93;9.85;;;26.20;83.10;;;;;;5059817;28;20041;-78
2023/08/20 06:15:20;;;;;;;11.35;9.90;;;26.30;83.20;;;;;;5057671;28;20036;-76
2023/08/20 06:17:47;;;;;;;11.88;10.25;;;26.30;83.00;;;;;;5057406;28;20041;-74
2023/08/20 06:20:13;;;;;;;11.45;10.27;;;26.40;83.10;;;;;;5060093;28;20627;-75
2023/08/20 06:22:39;;;;;;;11.23;10.02;;;26.40;83.20;;;;;;5060000;28;20054;-76
2023/08/20 06:25:05;;;;;;;11.05;9.27;;;26.40;83.00;;;;;;5060045;28;20064;-76
2023/08/20 06:27:32;;;;;;;11.00;9.90;;;26.50;83.20;;;;;;5058369;28;20127;-76
2023/08/20 06:29:58;;;;;;;11.18;9.23;;;26.50;83.40;;;;;;5059483;28;20482;-77
2023/08/20 06:32:24;;;;;;;9.60;8.70;;;26.60;82.80;;;;;;5059171;28;20090;-79
2023/08/20 06:34:50;;;;;;;9.32;8.32;;;26.70;81.60;;;;;;5060925;28;20056;-77
2023/08/20 06:37:16;;;;;;;8.73;7.88;;;26.80;80.80;;;;;;5061933;28;20112;-77
2023/08/20 06:39:42;;;;;;;10.75;8.45;;;26.90;80.40;;;;;;5059247;28;20393;-77
2023/08/20 06:42:08;;;;;;;9.20;8.30;;;26.90;80.30;;;;;;5060794;28;20503;-77
2023/08/20 06:44:35;;;;;;;9.13;8.23;;;27.00;80.00;;;;;;5058088;28;20032;-77
2023/08/20 06:47:01;;;;;;;8.70;7.90;;;27.10;80.00;;;;;;5059820;28;20574;-76
2023/08/20 06:49:27;;;;;;;9.00;8.10;;;27.20;80.00;;;;;;5045677;28;20037;-76
2023/08/20 06:51:53;;;;;;;8.90;8.10;;;27.30;79.70;;;;;;5062618;28;20097;-77
2023/08/20 06:54:19;;;;;;;9.68;7.65;;;27.30;79.70;;;;;;5057291;28;20708;-77
2023/08/20 06:56:45;;;;;;;9.07;8.05;;;27.40;79.70;;;;;;5059167;28;20036;-77
2023/08/20 06:59:11;;;;;;;8.52;7.63;;;27.40;79.40;;;;;;5058011;28;20163;-77
2023/08/20 07:01:37;;;;;;;8.85;7.78;;;27.50;79.40;;;;;;5060091;28;20050;-77
2023/08/20 07:04:03;;;;;;;7.82;7.10;;;27.50;79.20;;;;;;5059618;28;20132;-77
2023/08/20 07:06:29;;;;;;;9.95;7.93;;;27.50;79.00;;;;;;5058935;28;20033;-77
2023/08/20 07:08:55;;;;;;;9.18;7.93;;;27.50;79.00;;;;;;5059693;28;20082;-77
2023/08/20 07:11:21;;;;;;;8.52;7.53;;;27.50;78.90;;;;;;5059034;28;20044;-77
2023/08/20 07:13:47;;;;;;;8.10;7.22;;;27.60;78.80;;;;;;5058842;28;20563;-77
2023/08/20 07:16:13;;;;;;;7.82;7.13;;;27.60;78.70;;;;;;5057782;28;20040;-77
2023/08/20 07:18:39;;;;;;;7.65;7.03;;;27.60;78.60;;;;;;5057565;28;20040;-77
2023/08/20 07:21:07;;;;;;;7.85;6.63;;;27.60;78.30;;;;;;5060844;28;20082;-77
2023/08/20 07:23:34;;;;;;;8.18;7.47;;;27.70;78.20;;;;;;5061808;28;20075;-76
2023/08/20 07:26:07;;;;;;;7.78;6.97;;;27.70;78.20;;;;;;5059053;28;20088;-77
2023/08/20 07:31:18;;;;;;;7.78;7.07;;;27.70;78.00;;;;;;5058133;28;20131;-77
2023/08/20 07:33:48;;;;;;;7.93;7.22;;;27.80;78.00;;;;;;5059337;28;20066;-77
2023/08/20 07:36:15;;;;;;;9.50;6.50;;;27.80;77.90;;;;;;5059971;28;20033;-77
2023/08/20 07:38:42;;;;;;;7.75;6.95;;;27.80;77.60;;;;;;5057667;28;20036;-77
2023/08/20 07:41:10;;;;;;;10.13;7.10;;;27.90;77.60;;;;;;5074275;28;20427;-77
2023/08/20 07:43:38;;;;;;;7.15;6.55;;;27.90;77.60;;;;;;5059318;28;20039;-77
2023/08/20 07:46:04;;;;;;;8.27;6.57;;;28.00;77.60;;;;;;5059228;28;20037;-75
2023/08/20 07:48:30;;;;;;;7.28;6.57;;;28.00;77.60;;;;;;5058479;28;20036;-77
2023/08/20 07:50:56;;;;;;;7.22;6.63;;;28.00;77.50;;;;;;5062863;28;20024;-77
2023/08/20 07:53:22;;;;;;;6.95;6.35;;;28.00;77.50;;;;;;5061445;28;20152;-77
2023/08/20 07:55:49;;;;;;;6.38;5.78;;;28.00;77.30;;;;;;5060066;28;20515;-77
2023/08/20 07:58:15;;;;;;;6.60;6.00;;;28.10;77.30;;;;;;5058749;28;20388;-77
2023/08/20 08:00:41;;;;;;;7.03;6.20;;;28.10;77.20;;;;;;5058488;28;20127;-77
2023/08/20 08:03:07;;;;;;;6.20;5.70;;;28.10;76.90;;;;;;5059820;28;20169;-77
2023/08/20 08:05:33;;;;;;;6.72;6.07;;;28.10;76.80;;;;;;5060277;28;20039;-77
2023/08/20 08:08:00;;;;;;;6.53;5.93;;;28.10;76.70;;;;;;5058398;28;20431;-77
2023/08/20 08:10:26;;;;;;;6.38;5.78;;;28.10;76.60;;;;;;5058514;28;20040;-77
2023/08/20 08:12:52;;;;;;;7.43;6.05;;;28.10;76.60;;;;;;5058861;28;20037;-77
2023/08/20 08:15:18;;;;;;;6.20;5.70;;;28.10;76.40;;;;;;5058970;28;20060;-77
2023/08/20 08:17:44;;;;;;;5.97;5.47;;;28.10;76.30;;;;;;5060954;28;20040;-78
2023/08/20 08:20:10;;;;;;;7.25;5.45;;;28.10;76.20;;;;;;5060995;28;20037;-77
2023/08/20 08:22:37;;;;;;;6.05;5.40;;;28.10;76.20;;;;;;5065870;28;20120;-77
2023/08/20 08:25:03;;;;;;;6.07;5.57;;;28.10;76.00;;;;;;5061738;28;21317;-77
2023/08/20 08:27:31;;;;;;;6.03;5.53;;;28.20;76.10;;;;;;5060813;28;20037;-77
2023/08/20 08:29:58;;;;;;;5.88;5.45;;;28.20;75.90;;;;;;5065403;28;20569;-78
2023/08/20 08:32:24;;;;;;;7.30;5.55;;;28.20;75.70;;;;;;5064231;28;20033;-78
2023/08/20 08:34:52;;;;;;;5.97;5.47;;;28.20;75.50;;;;;;5059082;28;20033;-77
2023/08/20 08:37:17;;;;;;;5.53;5.03;;;28.20;75.30;;;;;;5059600;28;20530;-77
2023/08/20 08:39:43;;;;;;;5.38;4.88;;;28.20;75.10;;;;;;5060144;28;20045;-77
2023/08/20 08:42:11;;;;;;;5.40;4.90;;;28.20;75.00;;;;;;5064424;28;20025;-77
2023/08/20 08:44:37;;;;;;;5.75;5.25;;;28.20;74.80;;;;;;5060616;28;20032;-76
2023/08/20 08:47:05;;;;;;;7.85;5.10;;;28.20;74.80;;;;;;5061674;28;20539;-75
2023/08/20 08:49:34;;;;;;;5.20;4.70;;;28.30;74.80;;;;;;5061718;28;20131;-77
2023/08/20 08:52:03;;;;;;;5.57;5.05;;;28.30;74.70;;;;;;5059936;28;20047;-77
2023/08/20 08:54:29;;;;;;;6.38;5.32;;;28.30;74.70;;;;;;5061645;28;20119;-77
2023/08/20 08:56:56;;;;;;;6.93;5.82;;;28.30;74.60;;;;;;5064199;28;20659;-76
2023/08/20 08:59:22;;;;;;;5.82;5.32;;;28.30;74.60;;;;;;5060895;28;20082;-77
2023/08/20 09:01:49;;;;;;;6.07;4.93;;;28.30;74.50;;;;;;5062158;28;20511;-76
2023/08/20 09:04:15;;;;;;;5.90;5.40;;;28.30;74.50;;;;;;5047904;28;20036;-77
2023/08/20 09:06:48;;;;;;;5.78;5.28;;;28.30;74.50;;;;;;5060818;28;20051;-77
2023/08/20 09:09:16;;;;;;;6.53;5.28;;;28.30;74.30;;;;;;5060955;28;20097;-76
2023/08/20 09:11:42;;;;;;;5.50;4.95;;;28.30;74.20;;;;;;5061107;28;20036;-78
2023/08/20 09:14:20;;;;;;;6.93;5.43;;;28.30;74.20;;;;;;5062572;28;20045;-77
2023/08/20 09:16:46;;;;;;;6.80;5.43;;;28.30;74.10;;;;;;5061195;28;20070;-77
2023/08/20 09:19:11;;;;;;;5.38;4.88;;;28.30;74.00;;;;;;5061790;28;20466;-77
2023/08/20 09:21:37;;;;;;;5.45;4.80;;;28.30;73.90;;;;;;5060543;28;20028;-77
2023/08/20 09:24:04;;;;;;;6.15;5.30;;;28.30;73.80;;;;;;5061609;28;20085;-77
2023/08/20 09:26:30;;;;;;;5.68;5.07;;;28.30;73.70;;;;;;5060562;28;20048;-77
2023/08/20 09:28:56;;;;;;;5.15;4.65;;;28.30;73.60;;;;;;5059381;28;20491;-77
2023/08/20 09:31:39;;;;;;;6.35;4.72;;;28.30;73.40;;;;;;5061635;28;20079;-76
2023/08/20 09:34:05;;;;;;;5.28;4.70;;;28.30;73.40;;;;;;5062454;28;20174;-77
2023/08/20 09:36:33;;;;;;;5.35;4.85;;;28.30;73.40;;;;;;5061243;28;20025;-77
2023/08/20 09:39:02;;;;;;;5.40;4.90;;;28.30;73.40;;;;;;5061914;28;20060;-77
2023/08/20 09:41:29;;;;;;;6.03;5.45;;;28.30;73.50;;;;;;5060234;28;20037;-76
2023/08/20 09:43:59;;;;;;;6.47;4.78;;;28.30;73.40;;;;;;5058790;28;20033;-76
2023/08/20 09:46:27;;;;;;;5.10;4.70;;;28.30;73.30;;;;;;5061133;28;20035;-77
2023/08/20 09:48:58;;;;;;;5.10;4.70;;;28.30;73.20;;;;;;5061973;28;20056;-77
2023/08/20 09:51:28;;;;;;;5.68;4.75;;;28.30;73.10;;;;;;5061106;28;20067;-76
2023/08/20 09:54:19;;;;;;;5.05;4.63;;;28.30;73.10;;;;;;5060957;28;20024;-77
2023/08/20 09:56:50;;;;;;;5.13;4.72;;;28.30;73.00;;;;;;5062720;28;20518;-77
2023/08/20 09:59:17;;;;;;;5.55;5.05;;;28.30;73.00;;;;;;5060229;28;20033;-77
2023/08/20 10:01:43;;;;;;;5.97;4.63;;;28.30;72.80;;;;;;5061477;28;20028;-77
2023/08/20 10:04:10;;;;;;;5.70;5.20;;;28.30;72.80;;;;;;5061249;28;20029;-77
2023/08/20 10:06:37;;;;;;;5.38;4.88;;;28.30;72.70;;;;;;5031287;28;20036;-77
2023/08/20 10:09:04;;;;;;;5.47;4.97;;;28.30;72.60;;;;;;5058310;28;20466;-77
2023/08/20 10:11:30;;;;;;;5.70;5.18;;;28.30;72.60;;;;;;5060722;28;20036;-77
2023/08/20 10:13:56;;;;;;;5.22;4.72;;;28.30;72.60;;;;;;5060854;28;20462;-77
2023/08/20 10:16:23;;;;;;;5.72;5.22;;;28.30;72.50;;;;;;5060812;28;20054;-77
2023/08/20 10:18:50;;;;;;;5.28;4.85;;;28.30;72.50;;;;;;5058311;28;20041;-77
2023/08/20 10:21:16;;;;;;;5.47;4.97;;;28.30;72.40;;;;;;5057317;28;20115;-77
2023/08/20 10:23:48;;;;;;;5.20;4.72;;;28.30;72.40;;;;;;5058895;28;20044;-76
2023/08/20 10:26:16;;;;;;;6.28;4.78;;;28.30;72.40;;;;;;5060432;28;20036;-77
2023/08/20 10:28:42;;;;;;;5.63;5.13;;;28.30;72.30;;;;;;5060127;28;20421;-76
2023/08/20 10:31:17;;;;;;;5.00;4.50;;;28.20;72.20;;;;;;5059839;28;20056;-75
2023/08/20 10:33:50;;;;;;;6.00;5.32;;;28.30;72.10;;;;;;5057426;28;20455;-76
2023/08/20 10:36:18;;;;;;;5.28;4.88;;;28.20;72.00;;;;;;5060905;28;20411;-77
2023/08/20 10:38:47;;;;;;;5.47;4.97;;;28.20;72.00;;;;;;5058788;28;20043;-76
2023/08/20 10:41:16;;;;;;;5.82;4.78;;;28.30;72.10;;;;;;5058947;28;20427;-76
2023/08/20 10:43:49;;;;;;;6.63;4.85;;;28.20;71.90;;;;;;5059305;28;20033;-77
2023/08/20 10:46:30;;;;;;;5.22;4.72;;;28.30;72.10;;;;;;5059806;28;20044;-76
2023/08/20 10:49:01;;;;;;;5.45;4.95;;;28.20;72.00;;;;;;5058142;28;20036;-77
2023/08/20 10:51:28;;;;;;;5.55;5.05;;;28.30;72.10;;;;;;5058062;28;20032;-77
2023/08/20 10:54:00;;;;;;;5.22;4.82;;;28.30;72.10;;;;;;5060404;28;20349;-77
2023/08/20 10:56:48;;;;;;;5.07;4.68;;;28.30;72.10;;;;;;5061405;28;20024;-76
2023/08/20 10:59:16;;;;;;;6.45;5.00;;;28.30;72.10;;;;;;5057849;28;20044;-77
2023/08/20 11:01:47;;;;;;;5.20;4.63;;;28.30;72.10;;;;;;5059193;28;20147;-77
2023/08/20 11:04:18;;;;;;;4.97;4.57;;;28.20;71.80;;;;;;5060665;28;20040;-77
2023/08/20 11:06:45;;;;;;;5.28;4.78;;;28.30;71.90;;;;;;5059250;28;20040;-76
2023/08/20 11:09:13;;;;;;;5.35;4.63;;;28.30;71.80;;;;;;5058028;28;20112;-76
2023/08/20 11:11:40;;;;;;;4.50;4.18;;;28.30;71.80;;;;;;5059361;28;20028;-76
2023/08/20 11:14:08;;;;;;;4.93;4.53;;;28.30;71.70;;;;;;5060767;28;20040;-74
2023/08/20 11:16:37;;;;;;;5.10;4.70;;;28.30;71.80;;;;;;5059515;28;20041;-76
2023/08/20 11:19:08;;;;;;;4.95;4.43;;;28.30;71.70;;;;;;5056549;28;20057;-76
2023/08/20 11:21:34;;;;;;;4.63;4.30;;;28.30;71.80;;;;;;5058723;28;20028;-75
2023/08/20 11:24:04;;;;;;;6.53;5.13;;;28.30;71.80;;;;;;5058372;28;20032;-77
2023/08/20 11:26:30;;;;;;;5.32;4.90;;;28.30;71.80;;;;;;5059563;28;20033;-77
2023/08/20 11:28:56;;;;;;;5.05;4.65;;;28.40;71.90;;;;;;5058981;28;20040;-77
2023/08/20 11:31:22;;;;;;;5.28;4.78;;;28.40;71.90;;;;;;5059088;28;20620;-77
2023/08/20 11:33:49;;;;;;;5.60;5.10;;;28.30;71.90;;;;;;5058639;28;20430;-76
2023/08/20 11:36:18;;;;;;;4.40;4.10;;;28.30;71.80;;;;;;5059071;28;20036;-77
2023/08/20 11:38:53;;;;;;;5.07;4.68;;;28.30;71.90;;;;;;5058125;28;20458;-76
2023/08/20 11:41:20;;;;;;;;;;;28.30;72.00;;;;;;5058494;28;20543;-77
2023/08/20 11:43:49;;;;;;;5.10;4.70;;;28.30;71.90;;;;;;5057682;28;19916;-77
2023/08/20 11:46:18;;;;;;;4.65;4.22;;;28.30;72.00;;;;;;5058988;28;20044;-76
2023/08/20 11:49:07;;;;;;;5.00;4.53;;;28.30;72.10;;;;;;5059533;28;20136;-76
2023/08/20 11:51:37;;;;;;;5.28;4.88;;;28.30;72.00;;;;;;5057259;28;20036;-77
2023/08/20 11:54:22;;;;;;;5.20;4.80;;;28.30;72.10;;;;;;5064429;28;20426;-77
2023/08/20 11:56:50;;;;;;;5.95;4.97;;;28.30;72.10;;;;;;5062662;28;20032;-77
2023/08/20 11:59:19;;;;;;;6.65;4.80;;;28.30;72.10;;;;;;5064013;28;20139;-76
2023/08/20 12:02:00;;;;;;;4.93;4.50;;;28.30;71.80;;;;;;5063114;28;20032;-78
2023/08/20 12:04:27;;;;;;;5.05;4.65;;;28.30;72.20;;;;;;5063540;28;20060;-78
2023/08/20 12:07:14;;;;;;;5.32;4.82;;;28.30;71.80;;;;;;5063855;28;20064;-78
2023/08/20 12:09:40;;;;;;;6.70;5.70;;;28.30;72.00;;;;;;5064215;28;20040;-78
2023/08/20 12:12:08;;;;;;;7.03;5.63;;;28.30;72.20;;;;;;5063275;28;20070;-76
2023/08/20 12:14:35;;;;;;;6.40;5.30;;;28.30;72.20;;;;;;5060706;28;20056;-77
2023/08/20 12:17:03;;;;;;;5.40;5.00;;;28.30;72.50;;;;;;5063421;28;20047;-78
2023/08/20 12:19:29;;;;;;;5.63;5.13;;;28.30;72.50;;;;;;5061575;28;20048;-76
2023/08/20 12:21:56;;;;;;;7.88;6.38;;;28.30;72.70;;;;;;5061277;28;20086;-78
2023/08/20 12:24:22;;;;;;;6.65;6.05;;;28.30;72.40;;;;;;5062724;28;20043;-76
2023/08/20 12:26:48;;;;;;;5.97;5.38;;;28.30;72.50;;;;;;5063055;28;20037;-77
2023/08/20 12:29:14;;;;;;;6.10;5.50;;;28.30;72.50;;;;;;5060989;28;20029;-79
2023/08/20 12:31:41;;;;;;;5.53;5.03;;;28.30;72.40;;;;;;5062344;28;20043;-78
2023/08/20 12:34:08;;;;;;;5.50;5.00;;;28.30;72.60;;;;;;5061735;28;20032;-76
2023/08/20 12:36:34;;;;;;;5.93;5.32;;;28.20;72.80;;;;;;5061535;28;20036;-78
2023/08/20 12:39:00;;;;;;;5.95;5.30;;;28.20;73.30;;;;;;5062588;28;20047;-78
2023/08/20 12:41:26;;;;;;;7.90;5.10;;;28.20;73.60;;;;;;5062899;28;20032;-78
2023/08/20 12:43:52;;;;;;;6.07;4.78;;;28.10;74.00;;;;;;5061650;28;20025;-76